Time;durP1;ratioP1;P1;durP2;ratioP2;P2;SDS_P1;SDS_P2;PMS_P1;PMS_P2;Temp;Humidity;BMP_temperature;BMP_pressure;BME280_temperature;BME280_humidity;BME280_pressure;Samples;Min_cycle;Max_cycle;Signal;HPM_P1;HPM_P2
2022/07/17 00:01:41;;;;;;;6.87;4.90;;;18.60;62.00;;;;;;5070388;28;20207;-73
2022/07/17 00:04:06;;;;;;;8.43;5.50;;;18.60;62.50;;;;;;5062449;28;20705;-73
2022/07/17 00:06:32;;;;;;;7.20;4.93;;;18.60;62.00;;;;;;5068620;28;20179;-74
2022/07/17 00:08:57;;;;;;;6.83;4.97;;;18.60;61.60;;;;;;5069692;28;20188;-74
2022/07/17 00:11:23;;;;;;;6.90;4.80;;;18.60;61.70;;;;;;5058440;28;20192;-73
2022/07/17 00:13:49;;;;;;;9.70;4.70;;;18.50;61.90;;;;;;5062299;28;20208;-74
2022/07/17 00:16:14;;;;;;;14.20;4.97;;;18.50;62.30;;;;;;5067104;28;20217;-73
2022/07/17 00:18:40;;;;;;;12.53;5.73;;;18.50;62.50;;;;;;5067843;28;20652;-71
2022/07/17 00:21:06;;;;;;;6.73;4.57;;;18.50;62.60;;;;;;5061908;28;20179;-74
2022/07/17 00:23:31;;;;;;;7.63;4.60;;;18.40;62.80;;;;;;5061431;28;20211;-73
2022/07/17 00:25:57;;;;;;;6.50;4.97;;;18.50;62.80;;;;;;5061956;28;20189;-75
2022/07/17 00:28:22;;;;;;;7.03;4.53;;;18.40;62.90;;;;;;5067293;28;20212;-73
2022/07/17 00:30:48;;;;;;;8.00;4.87;;;18.40;62.90;;;;;;5066872;28;20194;-74
2022/07/17 00:33:14;;;;;;;7.17;4.70;;;18.40;63.10;;;;;;5066531;28;20182;-73
2022/07/17 00:35:39;;;;;;;7.77;4.93;;;18.30;63.20;;;;;;5077861;28;20236;-73
2022/07/17 00:38:05;;;;;;;5.73;4.47;;;18.30;63.20;;;;;;5081543;28;20744;-75
2022/07/17 00:40:30;;;;;;;7.17;4.37;;;18.30;63.10;;;;;;5072324;28;20182;-73
2022/07/17 00:42:56;;;;;;;5.70;4.53;;;18.20;63.20;;;;;;5083204;28;20565;-73
2022/07/17 00:45:24;;;;;;;6.63;4.80;;;18.20;63.40;;;;;;5060900;28;20292;-74
2022/07/17 00:47:57;;;;;;;7.60;5.13;;;18.20;63.40;;;;;;5067922;28;20193;-71
2022/07/17 00:50:25;;;;;;;7.93;4.93;;;18.20;63.20;;;;;;5068396;28;20487;-72
2022/07/17 00:52:51;;;;;;;6.93;4.60;;;18.10;63.50;;;;;;5067835;28;20427;-74
2022/07/17 00:55:17;;;;;;;6.00;4.63;;;18.10;63.50;;;;;;5063778;28;20474;-74
2022/07/17 00:57:46;;;;;;;7.40;4.97;;;18.10;63.80;;;;;;5066858;28;20494;-73
2022/07/17 01:00:12;;;;;;;5.33;4.23;;;18.00;63.80;;;;;;5065686;28;20460;-72
2022/07/17 01:02:38;;;;;;;9.70;5.00;;;18.00;64.10;;;;;;5065932;28;21149;-74
2022/07/17 01:05:05;;;;;;;8.70;5.30;;;17.90;65.40;;;;;;5062135;28;20512;-73
2022/07/17 01:07:31;;;;;;;8.10;5.30;;;17.90;65.40;;;;;;5067490;28;20426;-73
2022/07/17 01:09:57;;;;;;;9.43;5.43;;;17.80;66.10;;;;;;5063986;28;20417;-72
2022/07/17 01:12:24;;;;;;;9.70;5.23;;;17.60;66.70;;;;;;5062591;28;20463;-73
2022/07/17 01:14:51;;;;;;;9.70;5.90;;;17.60;67.00;;;;;;5066859;28;20223;-74
2022/07/17 01:17:17;;;;;;;10.63;5.40;;;17.50;67.20;;;;;;5065734;28;20443;-74
2022/07/17 01:19:43;;;;;;;7.97;4.80;;;17.30;67.70;;;;;;5066038;28;20589;-76
2022/07/17 01:22:08;;;;;;;10.20;5.53;;;17.40;67.70;;;;;;5067764;28;20261;-75
2022/07/17 01:24:38;;;;;;;7.30;5.10;;;17.40;67.70;;;;;;5058185;28;20212;-73
2022/07/17 01:27:03;;;;;;;8.20;5.13;;;17.40;67.60;;;;;;5065773;28;20576;-75
2022/07/17 01:29:29;;;;;;;8.87;5.40;;;17.40;67.60;;;;;;5068337;28;20452;-73
2022/07/17 01:31:54;;;;;;;5.93;4.30;;;17.40;67.20;;;;;;5063948;28;20188;-73
2022/07/17 01:34:20;;;;;;;7.10;5.33;;;17.40;67.20;;;;;;5060336;28;20717;-74
2022/07/17 01:36:46;;;;;;;7.63;5.20;;;17.40;67.50;;;;;;5067641;28;20196;-72
2022/07/17 01:39:11;;;;;;;9.33;5.37;;;17.40;67.60;;;;;;5068777;28;20251;-72
2022/07/17 01:41:37;;;;;;;7.23;5.10;;;17.50;67.60;;;;;;5067535;28;20199;-72
2022/07/17 01:44:03;;;;;;;7.23;5.00;;;17.40;67.70;;;;;;5063927;28;20216;-73
2022/07/17 01:46:29;;;;;;;9.93;5.60;;;17.40;67.90;;;;;;5066208;28;20172;-73
2022/07/17 01:48:55;;;;;;;8.80;5.37;;;17.40;67.50;;;;;;5066559;28;20421;-71
2022/07/17 01:51:21;;;;;;;6.70;4.77;;;17.30;68.00;;;;;;5063682;28;20500;-72
2022/07/17 01:53:46;;;;;;;6.37;4.60;;;17.30;67.20;;;;;;5059874;28;20216;-74
2022/07/17 01:56:12;;;;;;;5.20;4.20;;;17.40;66.60;;;;;;5067213;28;20241;-72
2022/07/17 01:58:38;;;;;;;6.40;4.60;;;17.40;66.10;;;;;;5065626;28;20297;-76
2022/07/17 02:01:04;;;;;;;6.50;4.53;;;17.40;66.00;;;;;;5068454;28;20199;-72
2022/07/17 02:03:29;;;;;;;6.27;4.50;;;17.40;66.30;;;;;;5064458;28;20976;-74
2022/07/17 02:05:55;;;;;;;6.67;4.57;;;17.40;66.40;;;;;;5059539;28;20200;-73
2022/07/17 02:08:21;;;;;;;5.83;4.43;;;17.30;66.40;;;;;;5068917;28;20191;-71
2022/07/17 02:10:46;;;;;;;6.57;5.03;;;17.30;66.70;;;;;;5069444;28;20189;-73
2022/07/17 02:13:12;;;;;;;6.57;5.10;;;17.30;67.00;;;;;;5065926;28;20551;-73
2022/07/17 02:15:38;;;;;;;9.20;6.17;;;17.30;67.20;;;;;;5066182;28;20633;-75
2022/07/17 02:18:03;;;;;;;7.63;5.47;;;17.30;67.20;;;;;;5068185;28;20300;-74
2022/07/17 02:20:29;;;;;;;7.70;5.10;;;17.30;67.30;;;;;;5066085;28;20184;-73
2022/07/17 02:22:55;;;;;;;9.33;4.97;;;17.20;67.30;;;;;;5071863;28;20188;-73
2022/07/17 02:25:20;;;;;;;11.87;5.90;;;17.20;67.50;;;;;;5068547;28;20689;-75
2022/07/17 02:27:46;;;;;;;9.20;5.60;;;17.20;67.70;;;;;;5071035;28;20188;-72
2022/07/17 02:30:14;;;;;;;10.57;5.60;;;17.10;67.90;;;;;;5061357;28;20558;-74
2022/07/17 02:32:41;;;;;;;9.20;5.70;;;17.10;68.00;;;;;;5064684;28;20267;-74
2022/07/17 02:35:08;;;;;;;8.43;5.27;;;17.10;68.20;;;;;;5069282;28;20469;-74
2022/07/17 02:37:35;;;;;;;10.17;6.67;;;17.10;68.20;;;;;;5066512;28;20426;-72
2022/07/17 02:40:01;;;;;;;8.90;5.70;;;17.00;68.50;;;;;;5075344;28;20767;-73
2022/07/17 02:42:28;;;;;;;7.83;5.23;;;17.00;68.80;;;;;;5073945;28;20422;-73
2022/07/17 02:44:54;;;;;;;6.90;5.40;;;16.90;69.10;;;;;;5070297;28;20237;-72
2022/07/17 02:47:22;;;;;;;7.10;5.47;;;16.90;69.40;;;;;;5070689;28;20414;-73
2022/07/17 02:49:48;;;;;;;9.70;4.90;;;16.80;69.70;;;;;;5074947;28;20422;-73
2022/07/17 02:52:14;;;;;;;8.23;5.43;;;16.70;70.70;;;;;;5068093;28;20449;-71
2022/07/17 02:54:39;;;;;;;7.00;5.20;;;16.70;70.70;;;;;;5068769;28;20562;-72
2022/07/17 02:57:05;;;;;;;11.17;5.80;;;16.60;71.00;;;;;;5069328;28;20218;-73
2022/07/17 02:59:31;;;;;;;10.63;5.63;;;16.60;71.10;;;;;;5070739;28;20210;-74
2022/07/17 03:01:56;;;;;;;14.43;5.70;;;16.60;71.30;;;;;;5070038;28;20186;-73
2022/07/17 03:04:22;;;;;;;8.63;5.53;;;16.50;71.40;;;;;;5070646;28;20211;-71
2022/07/17 03:06:47;;;;;;;8.30;5.10;;;16.50;71.30;;;;;;5062964;28;20241;-74
2022/07/17 03:09:13;;;;;;;12.93;5.50;;;16.60;71.40;;;;;;5072204;28;20235;-72
2022/07/17 03:11:38;;;;;;;11.80;5.57;;;16.60;71.10;;;;;;5063853;28;20302;-74
2022/07/17 03:14:04;;;;;;;7.20;5.33;;;16.50;71.40;;;;;;5067547;28;20307;-72
2022/07/17 03:16:30;;;;;;;8.10;5.20;;;16.40;71.70;;;;;;5067871;28;20215;-74
2022/07/17 03:18:55;;;;;;;7.50;5.37;;;16.50;71.80;;;;;;5074098;28;20213;-73
2022/07/17 03:21:21;;;;;;;8.10;5.43;;;16.40;72.00;;;;;;5067100;28;20584;-76
2022/07/17 03:23:46;;;;;;;9.50;5.40;;;16.30;72.10;;;;;;5069656;28;20219;-75
2022/07/17 03:26:12;;;;;;;10.50;5.87;;;16.30;72.60;;;;;;5070564;28;20664;-72
2022/07/17 03:28:37;;;;;;;9.60;6.20;;;16.30;72.70;;;;;;5073106;28;20192;-73
2022/07/17 03:31:03;;;;;;;5.70;5.23;;;16.20;72.60;;;;;;5070326;28;20195;-73
2022/07/17 03:33:29;;;;;;;8.57;5.50;;;16.20;72.70;;;;;;5068723;28;20191;-72
2022/07/17 03:35:55;;;;;;;7.23;5.73;;;16.20;72.70;;;;;;5058910;28;20182;-73
2022/07/17 03:38:21;;;;;;;8.73;6.13;;;16.20;73.20;;;;;;5068898;28;20209;-72
2022/07/17 03:40:46;;;;;;;7.70;5.80;;;16.20;73.00;;;;;;5068134;28;20501;-72
2022/07/17 03:43:13;;;;;;;10.83;5.90;;;16.10;73.20;;;;;;5070928;28;20225;-74
2022/07/17 03:45:39;;;;;;;9.37;5.90;;;16.10;73.50;;;;;;5069678;28;20204;-72
2022/07/17 03:48:05;;;;;;;8.77;5.97;;;16.10;73.50;;;;;;5063852;28;20432;-73
2022/07/17 03:50:30;;;;;;;10.37;5.90;;;16.00;73.60;;;;;;5069728;28;20189;-74
2022/07/17 03:52:56;;;;;;;9.60;5.87;;;16.00;73.70;;;;;;5070371;28;20329;-73
2022/07/17 03:55:22;;;;;;;8.60;5.93;;;15.90;73.90;;;;;;5067567;28;20248;-74
2022/07/17 03:57:47;;;;;;;8.40;6.03;;;16.00;73.70;;;;;;5062835;28;21034;-73
2022/07/17 04:00:13;;;;;;;8.37;5.30;;;16.00;73.70;;;;;;5065446;28;20179;-73
2022/07/17 04:02:39;;;;;;;6.73;5.73;;;16.00;73.70;;;;;;5069737;28;20182;-73
2022/07/17 04:05:09;;;;;;;10.20;5.20;;;16.10;73.60;;;;;;5064560;28;20622;-72
2022/07/17 04:07:38;;;;;;;6.50;5.40;;;16.20;73.30;;;;;;5067644;28;20258;-73
2022/07/17 04:10:04;;;;;;;7.47;5.60;;;16.10;73.30;;;;;;5072137;28;20467;-73
2022/07/17 04:12:30;;;;;;;8.40;5.73;;;16.20;73.00;;;;;;5070181;28;20410;-74
2022/07/17 04:14:56;;;;;;;8.73;6.20;;;16.10;73.20;;;;;;5066713;28;20464;-72
2022/07/17 04:17:22;;;;;;;6.47;5.60;;;16.00;73.60;;;;;;5069667;28;20191;-73
2022/07/17 04:19:48;;;;;;;7.60;5.70;;;15.90;74.00;;;;;;5073272;28;20434;-71
2022/07/17 04:22:14;;;;;;;12.20;6.10;;;15.90;74.00;;;;;;5071662;28;20445;-72
2022/07/17 04:24:40;;;;;;;9.40;6.00;;;16.00;74.00;;;;;;5064303;28;20493;-72
2022/07/17 04:27:06;;;;;;;9.90;6.50;;;16.00;73.70;;;;;;5071149;28;20459;-72
2022/07/17 04:29:33;;;;;;;7.30;5.57;;;16.00;73.90;;;;;;5071882;28;20410;-73
2022/07/17 04:31:58;;;;;;;9.80;5.93;;;16.00;74.00;;;;;;5069035;28;20525;-73
2022/07/17 04:34:24;;;;;;;8.03;6.13;;;16.00;74.00;;;;;;5065701;28;20488;-73
2022/07/17 04:36:50;;;;;;;9.67;6.00;;;16.10;74.00;;;;;;5070679;28;20191;-72
2022/07/17 04:39:16;;;;;;;9.60;5.97;;;16.20;73.70;;;;;;5067982;28;20669;-73
2022/07/17 04:41:41;;;;;;;7.40;6.30;;;16.30;73.50;;;;;;5064621;28;20180;-72
2022/07/17 04:44:07;;;;;;;10.43;6.73;;;16.30;73.50;;;;;;5066950;28;20314;-72
2022/07/17 04:46:32;;;;;;;11.33;6.80;;;16.30;73.60;;;;;;5069058;28;20207;-72
2022/07/17 04:48:58;;;;;;;11.40;6.30;;;16.40;73.60;;;;;;5071187;28;20195;-74
2022/07/17 04:51:24;;;;;;;8.13;6.77;;;16.40;73.60;;;;;;5071865;28;20198;-73
2022/07/17 04:53:49;;;;;;;8.43;5.90;;;16.50;73.50;;;;;;5071248;28;21434;-73
2022/07/17 04:56:15;;;;;;;8.77;6.23;;;16.60;73.30;;;;;;5080277;28;20217;-73
2022/07/17 04:58:41;;;;;;;9.93;6.80;;;16.60;73.00;;;;;;5074686;28;20206;-75
2022/07/17 05:01:06;;;;;;;10.17;7.10;;;16.70;73.00;;;;;;5066916;28;20436;-73
2022/07/17 05:03:32;;;;;;;10.37;7.40;;;16.70;73.20;;;;;;5061659;28;20216;-72
2022/07/17 05:05:58;;;;;;;10.23;6.43;;;16.70;73.00;;;;;;5067610;28;20924;-75
2022/07/17 05:08:23;;;;;;;9.70;7.20;;;16.80;73.00;;;;;;5064372;28;20199;-72
2022/07/17 05:10:49;;;;;;;8.57;7.13;;;16.90;72.70;;;;;;5065280;28;20191;-74
2022/07/17 05:13:15;;;;;;;8.77;6.73;;;16.90;72.60;;;;;;5067006;28;20188;-73
2022/07/17 05:15:40;;;;;;;8.57;6.10;;;17.00;71.60;;;;;;5065260;28;20204;-76
2022/07/17 05:18:07;;;;;;;8.70;6.60;;;17.00;71.40;;;;;;5069803;28;20586;-73
2022/07/17 05:20:34;;;;;;;10.77;7.03;;;17.00;71.40;;;;;;5067688;28;20242;-71
2022/07/17 05:23:00;;;;;;;10.23;6.77;;;17.10;71.00;;;;;;5068315;28;20433;-72
2022/07/17 05:25:25;;;;;;;11.10;7.83;;;17.10;70.80;;;;;;5064446;28;20464;-72
2022/07/17 05:27:51;;;;;;;16.40;6.80;;;17.00;71.40;;;;;;5067203;28;20193;-73
2022/07/17 05:30:17;;;;;;;9.23;7.53;;;17.10;71.70;;;;;;5066744;28;20215;-71
2022/07/17 05:32:43;;;;;;;13.20;8.10;;;17.20;71.60;;;;;;5069487;28;20192;-72
2022/07/17 05:35:09;;;;;;;10.73;8.03;;;17.10;72.00;;;;;;5062976;28;20618;-72
2022/07/17 05:37:34;;;;;;;13.47;7.57;;;17.20;72.30;;;;;;5063258;28;20433;-70
2022/07/17 05:40:00;;;;;;;15.43;8.40;;;17.20;72.30;;;;;;5069262;28;20190;-76
2022/07/17 05:42:26;;;;;;;14.57;8.50;;;17.20;72.10;;;;;;5067913;28;20250;-75
2022/07/17 05:44:52;;;;;;;16.33;7.80;;;17.30;72.00;;;;;;5066474;28;20219;-73
2022/07/17 05:47:17;;;;;;;13.07;7.73;;;17.40;71.80;;;;;;5068821;28;20179;-74
2022/07/17 05:49:43;;;;;;;15.13;8.00;;;17.50;71.70;;;;;;5065278;28;20196;-71
2022/07/17 05:52:08;;;;;;;11.30;8.40;;;17.50;71.30;;;;;;5063950;28;20185;-75
2022/07/17 05:54:34;;;;;;;12.30;8.30;;;17.50;71.10;;;;;;5066652;28;20674;-72
2022/07/17 05:57:00;;;;;;;15.73;9.33;;;17.60;71.00;;;;;;5066456;28;20225;-73
2022/07/17 05:59:26;;;;;;;11.40;8.03;;;17.50;71.10;;;;;;5058370;28;20316;-72
2022/07/17 06:01:52;;;;;;;13.03;8.63;;;17.50;71.30;;;;;;5063977;28;20439;-72
2022/07/17 06:04:18;;;;;;;16.70;9.53;;;17.60;71.00;;;;;;5058642;28;20230;-72
2022/07/17 06:06:43;;;;;;;13.47;9.40;;;17.60;71.10;;;;;;5061774;28;20518;-73
2022/07/17 06:09:09;;;;;;;12.03;9.33;;;17.50;71.30;;;;;;5064310;28;20560;-75
2022/07/17 06:11:34;;;;;;;12.73;8.33;;;17.50;71.60;;;;;;5067332;28;20183;-74
2022/07/17 06:14:00;;;;;;;13.50;7.93;;;17.60;71.30;;;;;;5063281;28;20570;-72
2022/07/17 06:16:26;;;;;;;17.20;8.63;;;17.80;70.70;;;;;;5065057;28;20855;-73
2022/07/17 06:18:51;;;;;;;20.80;8.53;;;17.90;70.50;;;;;;5070235;28;20384;-72
2022/07/17 06:21:17;;;;;;;10.10;8.50;;;18.00;70.20;;;;;;5063765;28;21012;-75
2022/07/17 06:23:43;;;;;;;10.60;7.60;;;18.00;69.90;;;;;;5063537;28;20724;-74
2022/07/17 06:26:08;;;;;;;24.20;14.07;;;18.00;69.80;;;;;;5068056;28;20269;-75
2022/07/17 06:28:34;;;;;;;13.67;9.47;;;18.00;69.50;;;;;;5070217;28;20191;-75
2022/07/17 06:31:00;;;;;;;15.33;9.60;;;18.00;69.70;;;;;;5073454;28;20269;-76
2022/07/17 06:33:25;;;;;;;26.90;14.00;;;18.10;69.50;;;;;;5059486;28;20182;-76
2022/07/17 06:35:51;;;;;;;21.17;14.20;;;18.20;68.80;;;;;;5066595;28;20196;-74
2022/07/17 06:38:16;;;;;;;15.83;8.37;;;18.10;68.50;;;;;;5069282;28;20218;-74
2022/07/17 06:40:42;;;;;;;14.00;8.83;;;18.10;68.60;;;;;;5060731;28;20235;-74
2022/07/17 06:43:08;;;;;;;13.80;8.30;;;18.30;68.00;;;;;;5068465;28;20217;-76
2022/07/17 06:45:34;;;;;;;11.73;8.27;;;18.30;68.00;;;;;;5060774;28;20485;-75
2022/07/17 06:48:00;;;;;;;12.37;7.80;;;18.40;67.70;;;;;;5065839;28;20283;-73
2022/07/17 06:50:25;;;;;;;13.40;8.40;;;18.40;67.70;;;;;;5064186;28;20454;-75
2022/07/17 06:52:51;;;;;;;10.03;7.70;;;18.60;67.60;;;;;;5068035;28;20897;-74
2022/07/17 06:55:17;;;;;;;13.00;8.47;;;18.50;67.50;;;;;;5068136;28;20208;-77
2022/07/17 06:57:45;;;;;;;10.50;7.63;;;18.60;67.20;;;;;;5070290;28;20275;-76
2022/07/17 07:00:11;;;;;;;8.47;7.40;;;18.60;66.60;;;;;;5067887;28;20188;-76
2022/07/17 07:02:37;;;;;;;12.80;7.87;;;18.80;66.10;;;;;;5063353;28;20420;-77
2022/07/17 07:05:04;;;;;;;15.87;8.20;;;18.80;65.40;;;;;;5069683;28;22116;-78
2022/07/17 07:07:30;;;;;;;18.33;7.70;;;18.90;65.70;;;;;;5069248;28;20200;-75
2022/07/17 07:09:55;;;;;;;19.23;7.70;;;19.00;64.70;;;;;;5060734;28;20462;-74
2022/07/17 07:12:21;;;;;;;16.10;7.47;;;19.10;64.20;;;;;;5067815;28;20428;-75
2022/07/17 07:14:47;;;;;;;11.53;6.50;;;19.10;63.70;;;;;;5062420;28;20379;-75
2022/07/17 07:17:12;;;;;;;9.10;6.87;;;19.10;63.90;;;;;;5070143;28;20245;-75
2022/07/17 07:19:38;;;;;;;9.77;7.30;;;19.20;63.40;;;;;;5070974;28;20640;-75
2022/07/17 07:22:04;;;;;;;11.03;6.40;;;19.30;62.50;;;;;;5067793;28;20185;-74
2022/07/17 07:24:29;;;;;;;13.57;7.00;;;19.40;62.20;;;;;;5063360;28;20249;-76
2022/07/17 07:26:55;;;;;;;8.67;6.33;;;19.40;61.50;;;;;;5067565;28;20226;-74
2022/07/17 07:29:20;;;;;;;11.43;6.43;;;19.50;61.50;;;;;;5064733;28;20185;-75
2022/07/17 07:31:47;;;;;;;11.03;6.20;;;19.60;60.40;;;;;;5064983;28;20633;-75
2022/07/17 07:34:13;;;;;;;8.60;6.10;;;19.60;60.30;;;;;;5067257;28;20578;-74
2022/07/17 07:36:39;;;;;;;7.93;5.50;;;19.70;60.00;;;;;;5070489;28;20428;-74
2022/07/17 07:39:04;;;;;;;11.33;6.20;;;19.80;59.50;;;;;;5067183;28;20912;-75
2022/07/17 07:41:30;;;;;;;7.40;5.50;;;19.70;58.90;;;;;;5064302;28;20211;-74
2022/07/17 07:43:56;;;;;;;12.60;6.27;;;19.80;59.10;;;;;;5063992;28;20686;-75
2022/07/17 07:46:21;;;;;;;7.70;5.60;;;19.90;58.50;;;;;;5070249;28;20189;-73
2022/07/17 07:48:47;;;;;;;9.83;5.87;;;20.00;58.20;;;;;;5070299;28;20214;-74
2022/07/17 07:51:13;;;;;;;5.70;4.70;;;20.10;58.10;;;;;;5063488;28;20187;-76
2022/07/17 07:53:38;;;;;;;13.20;5.80;;;20.10;58.40;;;;;;5067017;28;20204;-73
2022/07/17 07:56:04;;;;;;;10.43;6.07;;;20.10;58.40;;;;;;5067964;28;20188;-75
2022/07/17 07:58:29;;;;;;;8.37;5.80;;;20.10;58.40;;;;;;5070430;28;20243;-73
2022/07/17 08:00:55;;;;;;;11.80;5.70;;;20.20;58.00;;;;;;5070268;28;20725;-74
2022/07/17 08:03:21;;;;;;;5.73;4.87;;;20.20;57.60;;;;;;5066808;28;20196;-75
2022/07/17 08:05:46;;;;;;;6.30;4.63;;;20.40;57.20;;;;;;5063741;28;20214;-76
2022/07/17 08:08:12;;;;;;;7.47;4.67;;;20.40;56.90;;;;;;5069757;28;20662;-76
2022/07/17 08:10:37;;;;;;;7.93;5.30;;;20.50;57.00;;;;;;5064114;28;20190;-75
2022/07/17 08:13:03;;;;;;;9.33;5.30;;;20.70;56.60;;;;;;5067697;28;20207;-76
2022/07/17 08:15:29;;;;;;;9.70;5.00;;;20.70;56.20;;;;;;5063999;28;20213;-73
2022/07/17 08:17:55;;;;;;;10.47;5.00;;;20.80;56.10;;;;;;5067438;28;20219;-76
2022/07/17 08:20:21;;;;;;;6.10;5.20;;;20.90;55.40;;;;;;5065031;28;20197;-73
2022/07/17 08:22:48;;;;;;;7.37;4.20;;;21.00;54.60;;;;;;5069318;28;20214;-74
2022/07/17 08:25:13;;;;;;;6.40;4.80;;;21.10;54.60;;;;;;5063578;28;21171;-74
2022/07/17 08:27:42;;;;;;;9.93;5.03;;;21.10;54.20;;;;;;5060512;28;20416;-73
2022/07/17 08:30:10;;;;;;;5.03;4.83;;;21.20;54.50;;;;;;5070284;28;20182;-74
2022/07/17 08:32:37;;;;;;;6.13;4.67;;;21.30;54.10;;;;;;5069226;28;20453;-74
2022/07/17 08:35:04;;;;;;;7.73;5.23;;;21.30;54.10;;;;;;5065909;28;20974;-74
2022/07/17 08:37:30;;;;;;;7.73;4.83;;;21.30;53.80;;;;;;5069849;28;20938;-75
2022/07/17 08:39:56;;;;;;;7.17;5.07;;;21.30;53.60;;;;;;5070227;28;20477;-75
2022/07/17 08:42:22;;;;;;;6.03;4.27;;;21.40;53.40;;;;;;5068184;28;20417;-75
2022/07/17 08:44:48;;;;;;;7.53;4.63;;;21.60;53.20;;;;;;5065745;28;20468;-73
2022/07/17 08:47:15;;;;;;;4.97;4.37;;;21.70;53.00;;;;;;5066197;28;20512;-75
2022/07/17 08:49:45;;;;;;;7.33;4.33;;;21.80;52.50;;;;;;5070566;28;20178;-73
2022/07/17 08:52:12;;;;;;;6.03;4.80;;;21.90;52.00;;;;;;5063610;28;20437;-72
2022/07/17 08:54:39;;;;;;;11.80;5.10;;;22.00;52.00;;;;;;5066577;28;20456;-73
2022/07/17 08:57:05;;;;;;;5.93;4.93;;;22.10;51.80;;;;;;5069389;28;20425;-74
2022/07/17 08:59:31;;;;;;;6.70;4.47;;;22.20;51.30;;;;;;5064680;28;20467;-73
2022/07/17 09:01:59;;;;;;;5.70;4.60;;;22.20;50.70;;;;;;5069341;28;20193;-74
2022/07/17 09:04:24;;;;;;;6.20;4.60;;;22.20;51.00;;;;;;5069175;28;20471;-74
2022/07/17 09:07:04;;;;;;;6.10;4.63;;;22.20;51.00;;;;;;5069989;28;20524;-73
2022/07/17 09:09:31;;;;;;;9.10;4.40;;;22.40;50.70;;;;;;5065405;28;20189;-74
2022/07/17 09:12:03;;;;;;;6.60;5.00;;;22.40;49.90;;;;;;5065789;28;20492;-72
2022/07/17 09:14:40;;;;;;;6.03;4.70;;;22.50;49.50;;;;;;5075935;28;20625;-73
2022/07/17 09:17:08;;;;;;;5.80;4.87;;;22.70;48.90;;;;;;5076497;28;20480;-75
2022/07/17 09:19:40;;;;;;;5.50;4.70;;;22.80;48.70;;;;;;5066112;28;20464;-74
2022/07/17 09:22:12;;;;;;;4.43;4.10;;;22.90;48.30;;;;;;5070910;28;20510;-73
2022/07/17 09:24:45;;;;;;;4.47;3.90;;;22.90;47.90;;;;;;5071936;28;20461;-75
2022/07/17 09:27:14;;;;;;;6.73;4.57;;;23.00;47.80;;;;;;5058184;28;20432;-75
2022/07/17 09:30:12;;;;;;;4.53;4.30;;;23.00;46.90;;;;;;5067688;28;20503;-75
2022/07/17 09:32:39;;;;;;;5.43;3.80;;;23.00;46.60;;;;;;5072395;28;20432;-74
2022/07/17 09:35:07;;;;;;;5.73;4.27;;;23.20;47.00;;;;;;5072707;28;20479;-74
2022/07/17 09:37:34;;;;;;;5.53;4.20;;;23.20;47.40;;;;;;5067773;28;20430;-74
2022/07/17 09:40:01;;;;;;;6.50;4.40;;;23.30;46.70;;;;;;5064921;28;20488;-75
2022/07/17 09:42:31;;;;;;;7.80;4.23;;;23.40;46.70;;;;;;5061627;28;20438;-74
2022/07/17 09:45:05;;;;;;;6.50;4.80;;;23.40;46.60;;;;;;5062582;28;20456;-74
2022/07/17 09:47:33;;;;;;;6.73;3.87;;;23.60;45.00;;;;;;5068185;28;20414;-75
2022/07/17 09:50:00;;;;;;;5.47;3.77;;;23.50;44.70;;;;;;5067913;28;20425;-73
2022/07/17 09:52:31;;;;;;;5.90;3.10;;;23.60;43.90;;;;;;5068404;28;20481;-73
2022/07/17 09:54:58;;;;;;;7.90;3.70;;;23.70;43.80;;;;;;5062876;28;20517;-73
2022/07/17 09:57:29;;;;;;;6.00;3.63;;;23.80;41.00;;;;;;5067071;28;20424;-74
2022/07/17 10:00:01;;;;;;;3.27;2.93;;;23.90;41.40;;;;;;5067797;28;21027;-73
2022/07/17 10:02:27;;;;;;;6.97;3.60;;;24.00;40.70;;;;;;5065782;28;20420;-75
2022/07/17 10:04:53;;;;;;;6.20;4.20;;;24.10;39.50;;;;;;5063210;28;20457;-75
2022/07/17 10:07:20;;;;;;;5.73;3.83;;;24.00;39.80;;;;;;5071756;28;20420;-74
2022/07/17 10:09:46;;;;;;;6.00;3.73;;;24.00;40.20;;;;;;5067898;28;20676;-74
2022/07/17 10:12:16;;;;;;;3.53;3.03;;;24.10;39.80;;;;;;5059992;28;20434;-75
2022/07/17 10:14:42;;;;;;;4.50;3.50;;;24.30;37.90;;;;;;5070183;28;20458;-75
2022/07/17 10:17:13;;;;;;;7.40;3.53;;;24.60;38.40;;;;;;5072104;28;20514;-74
2022/07/17 10:19:52;;;;;;;4.17;3.70;;;24.90;38.30;;;;;;5072839;28;20207;-75
2022/07/17 10:22:18;;;;;;;4.67;3.73;;;24.80;39.40;;;;;;5072872;28;20412;-75
2022/07/17 10:24:52;;;;;;;7.97;3.90;;;25.00;39.60;;;;;;5070316;28;20464;-75
2022/07/17 10:27:29;;;;;;;4.17;3.47;;;25.00;40.00;;;;;;5065715;28;20189;-74
2022/07/17 10:30:05;;;;;;;4.53;4.03;;;25.40;39.60;;;;;;5070305;28;20421;-73
2022/07/17 10:32:32;;;;;;;5.13;3.43;;;25.60;38.00;;;;;;5072378;28;20519;-76
2022/07/17 10:35:09;;;;;;;3.67;3.47;;;25.50;37.90;;;;;;5066117;28;20467;-75
2022/07/17 10:37:34;;;;;;;7.30;4.57;;;25.80;37.80;;;;;;5069690;28;20423;-73
2022/07/17 10:40:23;;;;;;;4.33;3.80;;;26.30;37.50;;;;;;5069318;28;20467;-73
2022/07/17 10:42:59;;;;;;;3.90;3.60;;;26.30;36.80;;;;;;5065711;28;20826;-75
2022/07/17 10:45:42;;;;;;;5.10;4.30;;;25.80;37.40;;;;;;5067198;28;20872;-73
2022/07/17 10:48:12;;;;;;;5.10;4.23;;;25.80;37.90;;;;;;5067639;28;20417;-76
2022/07/17 10:50:42;;;;;;;4.50;3.67;;;25.90;37.60;;;;;;5067220;28;20534;-76
2022/07/17 10:53:10;;;;;;;4.80;4.13;;;26.60;36.60;;;;;;5078305;28;20431;-74
2022/07/17 10:55:42;;;;;;;4.00;3.27;;;26.90;36.00;;;;;;5076998;28;20838;-74
2022/07/17 10:58:23;;;;;;;3.87;3.70;;;26.70;35.30;;;;;;5078759;28;20458;-74
2022/07/17 11:01:00;;;;;;;3.83;3.43;;;26.40;36.20;;;;;;5069908;28;20429;-73
2022/07/17 11:03:27;;;;;;;4.23;3.67;;;26.10;36.40;;;;;;5062912;28;21304;-73
2022/07/17 11:05:53;;;;;;;4.73;4.10;;;26.00;37.20;;;;;;5072709;28;20450;-75
2022/07/17 11:08:18;;;;;;;3.83;3.23;;;26.40;35.20;;;;;;5070777;28;20429;-73
2022/07/17 11:10:45;;;;;;;5.77;3.10;;;26.40;35.60;;;;;;5064253;28;20192;-74
2022/07/17 11:13:15;;;;;;;3.73;3.10;;;26.10;35.70;;;;;;5068803;28;20195;-76
2022/07/17 11:15:48;;;;;;;4.73;3.70;;;25.90;34.00;;;;;;5062043;28;20827;-75
2022/07/17 11:18:17;;;;;;;4.30;3.70;;;26.10;34.70;;;;;;5070800;28;20553;-75
2022/07/17 11:20:55;;;;;;;2.97;2.77;;;26.50;34.50;;;;;;5069483;28;20422;-74
2022/07/17 11:23:24;;;;;;;3.60;3.50;;;26.50;33.50;;;;;;5062910;28;20474;-74
2022/07/17 11:25:59;;;;;;;3.20;2.87;;;27.20;32.70;;;;;;5064739;28;20450;-73
2022/07/17 11:28:39;;;;;;;5.33;3.07;;;27.70;32.10;;;;;;5062158;28;20418;-75
2022/07/17 11:31:17;;;;;;;6.53;3.70;;;28.30;31.10;;;;;;5064294;28;20513;-74
2022/07/17 11:33:50;;;;;;;4.37;3.27;;;28.20;31.30;;;;;;5063137;28;20491;-74
2022/07/17 11:36:24;;;;;;;5.80;3.67;;;27.60;32.70;;;;;;5068883;28;20421;-74
2022/07/17 11:38:51;;;;;;;6.10;3.80;;;26.80;33.90;;;;;;5072984;28;20462;-75
2022/07/17 11:41:20;;;;;;;5.27;3.50;;;26.70;34.40;;;;;;5084240;28;20429;-74
2022/07/17 11:43:47;;;;;;;5.03;3.97;;;27.10;34.00;;;;;;5088102;28;20446;-72
2022/07/17 11:46:14;;;;;;;4.10;3.47;;;27.50;32.50;;;;;;5066986;28;20952;-72
2022/07/17 11:48:42;;;;;;;4.27;3.60;;;27.60;32.70;;;;;;5065680;28;20454;-73
2022/07/17 11:51:07;;;;;;;4.10;3.80;;;28.10;31.60;;;;;;5070155;28;20422;-74
2022/07/17 11:53:37;;;;;;;4.20;3.50;;;27.50;30.50;;;;;;5066115;28;20545;-75
2022/07/17 11:56:04;;;;;;;4.27;3.50;;;27.30;31.30;;;;;;5070673;28;20180;-75
2022/07/17 11:58:41;;;;;;;6.27;3.90;;;27.10;32.10;;;;;;5069383;28;20512;-73
2022/07/17 12:01:07;;;;;;;4.63;3.50;;;26.90;33.10;;;;;;5069128;28;20879;-73
2022/07/17 12:03:33;;;;;;;6.50;3.47;;;26.90;33.90;;;;;;5067794;28;20414;-74
2022/07/17 12:05:58;;;;;;;6.43;4.07;;;27.20;33.90;;;;;;5066819;28;20591;-75
2022/07/17 12:08:24;;;;;;;4.10;3.30;;;27.90;31.70;;;;;;5068869;28;20241;-75
2022/07/17 12:11:00;;;;;;;4.47;3.47;;;28.20;30.90;;;;;;5070136;28;20191;-75
2022/07/17 12:13:41;;;;;;;4.40;3.50;;;28.60;29.30;;;;;;5065239;28;20284;-75
2022/07/17 12:16:29;;;;;;;5.20;3.60;;;28.70;29.20;;;;;;5069065;28;20457;-75
2022/07/17 12:19:11;;;;;;;7.90;4.37;;;28.90;29.00;;;;;;5069741;28;20595;-75
2022/07/17 12:21:47;;;;;;;4.60;4.07;;;29.20;29.20;;;;;;5068518;28;20421;-73
2022/07/17 12:24:19;;;;;;;5.33;4.50;;;28.70;30.30;;;;;;5064498;28;20474;-76
2022/07/17 12:26:45;;;;;;;4.90;3.50;;;28.90;29.80;;;;;;5063538;28;20418;-75
2022/07/17 12:29:11;;;;;;;5.10;4.07;;;29.20;29.60;;;;;;5065942;28;20441;-75
2022/07/17 12:31:36;;;;;;;4.13;3.23;;;29.30;29.10;;;;;;5069297;28;20245;-75
2022/07/17 12:34:02;;;;;;;3.80;3.30;;;28.80;29.20;;;;;;5066992;28;20224;-74
2022/07/17 12:36:27;;;;;;;3.57;3.20;;;28.50;29.60;;;;;;5069346;28;20963;-73
2022/07/17 12:38:53;;;;;;;5.93;3.57;;;28.40;29.70;;;;;;5069767;28;20284;-75
2022/07/17 12:41:19;;;;;;;4.83;3.80;;;28.30;28.50;;;;;;5062968;28;20180;-74
2022/07/17 12:43:45;;;;;;;4.70;2.97;;;28.10;29.60;;;;;;5069965;28;20227;-76